createdAt,value
2018-12-10T00:00:22.012Z,2.40
2018-12-10T00:02:51.471Z,2.87
2018-12-10T00:05:18.963Z,2.80
2018-12-10T00:07:46.430Z,3.00
2018-12-10T00:10:13.898Z,2.90
2018-12-10T00:12:41.372Z,2.40
2018-12-10T00:15:08.925Z,2.97
2018-12-10T00:17:36.395Z,2.80
2018-12-10T00:20:04.328Z,3.23
2018-12-10T00:22:31.847Z,2.60
2018-12-10T00:24:59.313Z,4.50
2018-12-10T00:27:26.774Z,2.20
2018-12-10T00:29:54.249Z,2.40
2018-12-10T00:32:21.722Z,2.20
2018-12-10T00:34:49.202Z,3.00
2018-12-10T00:37:16.666Z,2.33
2018-12-10T00:39:44.139Z,2.03
2018-12-10T00:42:11.606Z,1.77
2018-12-10T00:44:39.062Z,1.67
2018-12-10T00:47:06.532Z,3.70
2018-12-10T00:49:33.992Z,2.07
2018-12-10T00:52:01.465Z,2.60
2018-12-10T00:54:28.922Z,2.77
2018-12-10T00:56:56.410Z,2.10
2018-12-10T00:59:23.866Z,1.83
2018-12-10T01:01:51.339Z,2.40
2018-12-10T01:04:18.820Z,1.90
2018-12-10T01:06:46.287Z,1.50
2018-12-10T01:09:13.762Z,1.63
2018-12-10T01:11:41.223Z,2.03
2018-12-10T01:14:08.708Z,2.40
2018-12-10T01:16:36.170Z,1.70
2018-12-10T01:19:03.626Z,2.27
2018-12-10T01:21:31.099Z,2.00
2018-12-10T01:23:58.554Z,2.30
2018-12-10T01:26:26.022Z,2.10
2018-12-10T01:28:53.479Z,2.10
2018-12-10T01:31:20.956Z,1.90
2018-12-10T01:33:48.424Z,2.10
2018-12-10T01:36:15.898Z,2.20
2018-12-10T01:38:43.359Z,2.77
2018-12-10T01:41:10.818Z,1.90
2018-12-10T01:43:38.296Z,2.20
2018-12-10T01:46:05.875Z,2.10
2018-12-10T01:48:33.355Z,1.97
2018-12-10T01:51:00.824Z,1.97
2018-12-10T01:53:28.291Z,2.20
2018-12-10T01:55:55.761Z,1.87
2018-12-10T01:58:23.226Z,1.30
2018-12-10T02:00:50.702Z,1.37
2018-12-10T02:03:18.154Z,1.50
2018-12-10T02:05:45.638Z,1.23
2018-12-10T02:08:13.098Z,1.60
2018-12-10T02:10:40.554Z,1.70
2018-12-10T02:13:08.018Z,1.40
2018-12-10T02:15:35.474Z,2.20
2018-12-10T02:18:03.013Z,1.43
2018-12-10T02:20:30.479Z,1.10
2018-12-10T02:22:57.951Z,2.23
2018-12-10T02:25:25.616Z,1.83
2018-12-10T02:27:53.092Z,1.80
2018-12-10T02:30:20.565Z,1.47
2018-12-10T02:32:48.023Z,1.57
2018-12-10T02:35:15.496Z,1.13
2018-12-10T02:37:42.959Z,1.53
2018-12-10T02:40:10.423Z,1.70
2018-12-10T02:42:37.882Z,1.60
2018-12-10T02:45:05.639Z,1.70
2018-12-10T02:47:33.101Z,1.80
2018-12-10T02:50:00.585Z,1.60
2018-12-10T02:52:28.114Z,1.87
2018-12-10T02:54:55.579Z,1.53
2018-12-10T02:57:23.052Z,1.30
2018-12-10T02:59:50.514Z,1.90
2018-12-10T03:02:17.974Z,1.80
2018-12-10T03:04:45.433Z,1.83
2018-12-10T03:07:12.914Z,2.10
2018-12-10T03:09:40.368Z,1.70
2018-12-10T03:12:07.922Z,1.03
2018-12-10T03:14:35.383Z,2.00
2018-12-10T03:17:02.867Z,1.50
2018-12-10T03:19:30.346Z,1.20
2018-12-10T03:21:58.831Z,1.30
2018-12-10T03:24:26.314Z,1.57
2018-12-10T03:26:53.785Z,1.50
2018-12-10T03:29:21.275Z,1.07
2018-12-10T03:31:48.744Z,1.80
2018-12-10T03:34:16.210Z,2.17
2018-12-10T03:36:43.679Z,1.60
2018-12-10T03:39:11.140Z,1.83
2018-12-10T03:41:38.617Z,1.30
2018-12-10T03:44:06.077Z,2.30
2018-12-10T03:46:33.555Z,1.43
2018-12-10T03:49:01.015Z,1.60
2018-12-10T03:51:28.488Z,1.60
2018-12-10T03:53:55.979Z,1.53
2018-12-10T03:56:23.731Z,1.37
2018-12-10T03:58:51.194Z,1.60
2018-12-10T04:01:18.679Z,1.43
2018-12-10T04:03:46.996Z,1.53
2018-12-10T04:06:14.529Z,1.87
2018-12-10T04:08:41.999Z,1.33
2018-12-10T04:11:09.458Z,1.70
2018-12-10T04:13:36.986Z,1.70
2018-12-10T04:16:04.499Z,1.03
2018-12-10T04:18:31.969Z,0.90
2018-12-10T04:21:00.503Z,1.07
2018-12-10T04:23:27.971Z,1.10
2018-12-10T04:25:55.422Z,1.30
2018-12-10T04:28:22.897Z,1.10
2018-12-10T04:30:50.359Z,0.87
2018-12-10T04:33:17.933Z,0.97
2018-12-10T04:35:45.414Z,0.90
2018-12-10T04:38:14.057Z,0.70
2018-12-10T04:40:41.523Z,1.30
2018-12-10T04:43:08.984Z,0.90
2018-12-10T04:45:36.474Z,1.03
2018-12-10T04:48:04.031Z,0.77
2018-12-10T04:50:31.507Z,1.00
2018-12-10T04:52:58.963Z,1.10
2018-12-10T04:55:26.435Z,1.07
2018-12-10T04:57:53.893Z,0.90
2018-12-10T05:00:21.363Z,0.73
2018-12-10T05:02:48.826Z,1.10
2018-12-10T05:05:16.290Z,0.97
2018-12-10T05:07:43.747Z,1.00
2018-12-10T05:10:11.218Z,1.20
2018-12-10T05:12:38.674Z,0.83
2018-12-10T05:15:06.292Z,0.80
2018-12-10T05:17:33.759Z,1.17
2018-12-10T05:20:01.212Z,1.07
2018-12-10T05:22:28.698Z,1.53
2018-12-10T05:24:56.150Z,1.00
2018-12-10T05:27:23.725Z,0.97
2018-12-10T05:29:51.167Z,0.90
2018-12-10T05:32:18.640Z,1.20
2018-12-10T05:34:46.095Z,1.00
2018-12-10T05:37:13.653Z,0.77
2018-12-10T05:39:41.150Z,0.90
2018-12-10T05:42:08.651Z,0.90
2018-12-10T05:44:36.090Z,1.13
2018-12-10T05:47:03.639Z,0.97
2018-12-10T05:49:31.102Z,1.17
2018-12-10T05:51:58.561Z,1.00
2018-12-10T05:54:26.022Z,1.60
2018-12-10T05:56:53.483Z,1.20
2018-12-10T05:59:20.963Z,1.27
2018-12-10T06:01:48.421Z,1.80
2018-12-10T06:04:15.886Z,1.80
2018-12-10T06:06:43.348Z,1.60
2018-12-10T06:09:10.820Z,1.50
2018-12-10T06:11:38.283Z,2.00
2018-12-10T06:14:05.761Z,2.50
2018-12-10T06:16:33.222Z,2.23
2018-12-10T06:19:00.768Z,2.10
2018-12-10T06:21:28.214Z,2.97
2018-12-10T06:23:55.685Z,2.60
2018-12-10T06:26:23.327Z,3.30
2018-12-10T06:28:50.787Z,3.23
2018-12-10T06:31:18.260Z,3.40
2018-12-10T06:33:45.751Z,3.67
2018-12-10T06:36:13.222Z,3.20
2018-12-10T06:38:40.672Z,2.83
2018-12-10T06:41:08.143Z,3.80
2018-12-10T06:43:35.600Z,4.03
2018-12-10T06:46:03.067Z,3.87
2018-12-10T06:48:30.523Z,4.47
2018-12-10T06:50:57.999Z,4.40
2018-12-10T06:53:25.459Z,4.30
2018-12-10T06:55:52.946Z,4.80
2018-12-10T07:05:21.230Z,5.00
2018-12-10T07:07:48.827Z,5.47
2018-12-10T07:10:16.276Z,5.00
2018-12-10T07:12:43.749Z,5.33
2018-12-10T07:15:11.211Z,5.77
2018-12-10T07:17:38.687Z,5.20
2018-12-10T07:20:07.006Z,4.50
2018-12-10T07:22:34.467Z,4.97
2018-12-10T07:25:01.943Z,5.00
2018-12-10T07:27:29.454Z,4.83
2018-12-10T07:29:56.947Z,5.50
2018-12-10T07:32:24.409Z,5.17
2018-12-10T07:34:51.924Z,5.37
2018-12-10T07:37:19.380Z,5.07
2018-12-10T07:39:46.843Z,5.40
2018-12-10T07:42:14.396Z,4.27
2018-12-10T07:44:41.852Z,4.30
2018-12-10T07:47:09.314Z,3.87
2018-12-10T07:49:36.775Z,3.60
2018-12-10T07:52:04.252Z,3.10
2018-12-10T07:54:31.715Z,3.27
2018-12-10T07:56:59.179Z,3.60
2018-12-10T07:59:26.638Z,3.40
2018-12-10T08:01:54.109Z,3.77
2018-12-10T08:04:21.577Z,3.23
2018-12-10T08:06:49.041Z,3.43
2018-12-10T08:09:16.534Z,3.80
2018-12-10T08:11:43.995Z,3.40
2018-12-10T08:14:11.476Z,3.10
2018-12-10T08:16:38.975Z,3.43
2018-12-10T08:19:06.459Z,3.67
2018-12-10T08:21:33.974Z,3.10
2018-12-10T08:24:01.451Z,2.90
2018-12-10T08:26:28.919Z,3.10
2018-12-10T08:29:03.843Z,2.43
2018-12-10T08:31:25.866Z,2.80
2018-12-10T08:33:53.318Z,2.27
2018-12-10T08:36:20.888Z,2.20
2018-12-10T08:38:48.341Z,2.30
2018-12-10T08:41:15.843Z,2.20
2018-12-10T08:43:43.300Z,2.03
2018-12-10T08:46:10.766Z,3.30
2018-12-10T08:48:38.236Z,2.13
2018-12-10T08:51:05.784Z,1.93
2018-12-10T08:53:33.471Z,1.60
2018-12-10T08:56:00.939Z,1.40
2018-12-10T08:58:28.410Z,1.80
2018-12-10T09:00:55.865Z,2.07
2018-12-10T09:03:23.345Z,2.50
2018-12-10T09:05:50.799Z,2.00
2018-12-10T09:08:18.258Z,2.13
2018-12-10T09:10:45.734Z,1.47
2018-12-10T09:13:13.191Z,1.80
2018-12-10T09:15:40.666Z,2.03
2018-12-10T09:18:08.119Z,2.37
2018-12-10T09:20:35.607Z,2.60
2018-12-10T09:23:03.063Z,1.87
2018-12-10T09:25:30.518Z,2.07
2018-12-10T09:27:58.010Z,2.13
2018-12-10T09:30:25.496Z,2.07
2018-12-10T09:32:52.967Z,2.90
2018-12-10T09:35:20.507Z,2.70
2018-12-10T09:37:47.983Z,2.37
2018-12-10T09:40:15.431Z,2.50
2018-12-10T09:42:42.910Z,2.60
2018-12-10T09:45:10.547Z,2.90
2018-12-10T09:47:38.002Z,3.00
2018-12-10T09:50:07.915Z,3.13
2018-12-10T09:52:35.442Z,3.20
2018-12-10T09:55:02.923Z,4.03
2018-12-10T09:57:30.390Z,3.97
2018-12-10T09:59:57.873Z,4.03
2018-12-10T10:02:25.388Z,4.70
2018-12-10T10:04:52.870Z,4.90
2018-12-10T10:07:28.272Z,5.13
2018-12-10T10:09:49.809Z,5.97
2018-12-10T10:12:17.331Z,6.10
2018-12-10T10:14:44.813Z,6.43
2018-12-10T10:17:12.285Z,5.60
2018-12-10T10:19:39.869Z,4.07
2018-12-10T10:22:07.447Z,5.20
2018-12-10T10:24:34.916Z,4.53
2018-12-10T10:27:02.395Z,3.87
2018-12-10T10:29:29.850Z,3.60
2018-12-10T10:31:57.339Z,3.13
2018-12-10T10:34:24.815Z,3.43
2018-12-10T10:36:52.352Z,2.60
2018-12-10T10:39:19.833Z,2.60
2018-12-10T10:41:47.338Z,2.67
2018-12-10T10:44:14.810Z,2.67
2018-12-10T10:46:42.271Z,2.10
2018-12-10T10:49:09.746Z,2.30
2018-12-10T10:51:37.215Z,2.23
2018-12-10T10:54:04.711Z,3.30
2018-12-10T10:56:32.193Z,2.60
2018-12-10T10:58:59.718Z,3.10
2018-12-10T11:01:32.839Z,4.40
2018-12-10T11:04:00.304Z,4.00
2018-12-10T11:06:27.800Z,5.17
2018-12-10T11:08:55.267Z,6.10
2018-12-10T11:11:22.802Z,5.07
2018-12-10T11:13:50.331Z,4.23
2018-12-10T11:16:17.830Z,4.20
2018-12-10T11:18:45.311Z,3.80
2018-12-10T11:21:12.803Z,4.73
2018-12-10T11:23:40.338Z,4.00
2018-12-10T11:26:07.873Z,3.63
2018-12-10T11:28:35.362Z,2.70
2018-12-10T11:31:03.287Z,3.30
2018-12-10T11:33:30.758Z,2.43
2018-12-10T11:35:58.220Z,2.23
2018-12-10T11:38:25.702Z,2.20
2018-12-10T11:40:53.155Z,3.00
2018-12-10T11:43:23.707Z,3.23
2018-12-10T11:45:51.163Z,3.53
2018-12-10T11:48:18.647Z,4.40
2018-12-10T11:50:46.265Z,5.37
2018-12-10T11:53:13.741Z,5.20
2018-12-10T11:55:41.226Z,5.10
2018-12-10T11:58:08.684Z,6.20
2018-12-10T12:00:36.173Z,6.20
2018-12-10T12:03:03.759Z,6.13
2018-12-10T12:05:31.262Z,6.03
2018-12-10T12:07:58.719Z,5.60
2018-12-10T12:10:26.178Z,5.60
2018-12-10T12:12:53.656Z,5.70
2018-12-10T12:15:21.230Z,4.83
2018-12-10T12:17:48.772Z,5.70
2018-12-10T12:20:16.247Z,5.20
2018-12-10T12:22:43.718Z,4.17
2018-12-10T12:25:11.188Z,5.10
2018-12-10T12:27:38.713Z,4.17
2018-12-10T12:30:07.555Z,3.87
2018-12-10T12:32:35.063Z,4.10
2018-12-10T12:35:02.552Z,4.27
2018-12-10T12:37:30.030Z,4.57
2018-12-10T12:39:58.598Z,2.20
2018-12-10T12:42:26.162Z,2.43
2018-12-10T12:44:53.776Z,2.10
2018-12-10T12:47:21.220Z,2.80
2018-12-10T12:49:48.807Z,2.13
2018-12-10T12:52:16.351Z,2.20
2018-12-10T12:54:43.835Z,2.70
2018-12-10T12:57:11.442Z,3.20
2018-12-10T12:59:38.902Z,3.13
2018-12-10T13:02:06.391Z,4.37
2018-12-10T13:04:33.866Z,2.83
2018-12-10T13:07:01.386Z,3.73
2018-12-10T13:09:28.912Z,3.43
2018-12-10T13:11:56.395Z,3.20
2018-12-10T13:14:23.887Z,3.50
2018-12-10T13:16:51.353Z,3.43
2018-12-10T13:19:18.851Z,3.73
2018-12-10T13:21:46.311Z,4.10
2018-12-10T13:24:14.770Z,4.60
2018-12-10T13:26:42.244Z,4.80
2018-12-10T13:29:09.907Z,5.33
2018-12-10T13:31:37.596Z,4.33
2018-12-10T13:34:05.073Z,5.20
2018-12-10T13:36:32.567Z,4.73
2018-12-10T13:39:00.022Z,4.30
2018-12-10T13:41:27.503Z,5.27
2018-12-10T13:43:54.971Z,4.53
2018-12-10T13:46:22.915Z,4.90
2018-12-10T13:48:50.426Z,5.60
2018-12-10T13:51:17.947Z,4.70
2018-12-10T13:53:45.402Z,5.00
2018-12-10T13:56:12.896Z,5.50
2018-12-10T13:58:40.351Z,4.13
2018-12-10T14:01:07.933Z,5.53
2018-12-10T14:03:35.600Z,4.40
2018-12-10T14:06:03.129Z,4.80
2018-12-10T14:08:30.600Z,4.13
2018-12-10T14:10:58.115Z,3.90
2018-12-10T14:13:25.583Z,3.60
2018-12-10T14:15:53.623Z,4.10
2018-12-10T14:18:21.106Z,3.17
2018-12-10T14:20:48.556Z,3.47
2018-12-10T14:23:16.606Z,3.10
2018-12-10T14:25:44.091Z,3.57
2018-12-10T14:28:12.582Z,3.17
2018-12-10T14:30:40.155Z,3.47
2018-12-10T14:33:07.712Z,3.90
2018-12-10T14:35:35.171Z,3.47
2018-12-10T14:38:02.773Z,2.67
2018-12-10T14:40:30.353Z,3.60
2018-12-10T14:42:58.838Z,4.07
2018-12-10T14:45:26.311Z,3.03
2018-12-10T14:47:53.784Z,3.60
2018-12-10T14:50:21.267Z,2.63
2018-12-10T14:52:48.731Z,2.70
2018-12-10T14:55:16.312Z,2.77
2018-12-10T14:57:43.998Z,2.97
2018-12-10T15:00:11.678Z,3.30
2018-12-10T15:02:39.224Z,3.00
2018-12-10T15:05:07.572Z,2.50
2018-12-10T15:07:35.066Z,3.30
2018-12-10T15:10:02.773Z,2.80
2018-12-10T15:12:30.254Z,3.10
2018-12-10T15:14:57.860Z,2.83
2018-12-10T15:17:25.409Z,3.60
2018-12-10T15:19:52.964Z,2.70
2018-12-10T15:22:20.603Z,2.60
2018-12-10T15:24:48.071Z,2.67
2018-12-10T15:27:15.663Z,2.73
2018-12-10T15:29:43.236Z,2.93
2018-12-10T15:32:10.842Z,2.50
2018-12-10T15:34:38.342Z,2.77
2018-12-10T15:37:05.820Z,3.07
2018-12-10T15:39:33.279Z,3.03
2018-12-10T15:42:00.766Z,2.93
2018-12-10T15:44:28.235Z,2.40
2018-12-10T15:46:55.960Z,2.13
2018-12-10T15:49:23.473Z,2.67
2018-12-10T15:51:51.088Z,3.10
2018-12-10T15:54:18.926Z,2.70
2018-12-10T15:56:46.378Z,3.37
2018-12-10T15:59:14.039Z,2.60
2018-12-10T16:01:41.533Z,2.30
2018-12-10T16:04:09.118Z,2.40
2018-12-10T16:06:36.590Z,2.73
2018-12-10T16:09:06.718Z,2.43
2018-12-10T16:11:34.324Z,2.80
2018-12-10T16:14:02.009Z,2.40
2018-12-10T16:16:29.505Z,2.60
2018-12-10T16:18:57.090Z,6.67
2018-12-10T16:21:24.675Z,3.00
2018-12-10T16:23:52.287Z,2.93
2018-12-10T16:26:19.746Z,3.20
2018-12-10T16:28:47.242Z,2.47
2018-12-10T16:31:14.962Z,2.97
2018-12-10T16:33:42.441Z,1.90
2018-12-10T16:36:10.581Z,2.40
2018-12-10T16:38:38.063Z,1.93
2018-12-10T16:41:05.545Z,2.13
2018-12-10T16:43:33.008Z,2.30
2018-12-10T16:46:00.494Z,2.53
2018-12-10T16:48:27.987Z,2.37
2018-12-10T16:50:55.544Z,2.03
2018-12-10T16:53:23.024Z,2.10
2018-12-10T16:55:50.512Z,2.30
2018-12-10T16:58:18.972Z,1.70
2018-12-10T17:00:46.534Z,1.83
2018-12-10T17:03:14.025Z,2.00
2018-12-10T17:05:41.493Z,2.30
2018-12-10T17:08:09.006Z,2.40
2018-12-10T17:10:36.542Z,2.00
2018-12-10T17:13:04.161Z,2.50
2018-12-10T17:15:31.640Z,1.80
2018-12-10T17:17:59.167Z,1.77
2018-12-10T17:20:27.815Z,1.80
2018-12-10T17:22:55.355Z,1.70
2018-12-10T17:25:22.835Z,2.23
2018-12-10T17:27:50.331Z,2.20
2018-12-10T17:30:17.798Z,2.07
2018-12-10T17:32:46.279Z,1.60
2018-12-10T17:35:13.802Z,1.73
2018-12-10T17:37:41.282Z,2.17
2018-12-10T17:40:08.928Z,1.97
2018-12-10T17:42:36.398Z,2.13
2018-12-10T17:45:05.973Z,1.53
2018-12-10T17:47:34.434Z,1.77
2018-12-10T17:50:02.103Z,1.90
2018-12-10T17:52:29.585Z,2.10
2018-12-10T17:54:57.094Z,2.73
2018-12-10T17:57:24.608Z,2.40
2018-12-10T17:59:52.087Z,2.60
2018-12-10T18:02:19.604Z,2.80
2018-12-10T18:04:47.115Z,2.80
2018-12-10T18:07:14.592Z,2.33
2018-12-10T18:09:42.158Z,2.10
2018-12-10T18:12:09.623Z,2.40
2018-12-10T18:14:37.227Z,2.90
2018-12-10T18:17:04.800Z,2.47
2018-12-10T18:19:32.379Z,3.03
2018-12-10T18:21:59.841Z,2.80
2018-12-10T18:24:27.301Z,2.80
2018-12-10T18:26:54.803Z,3.00
2018-12-10T18:29:22.367Z,2.90
2018-12-10T18:31:49.847Z,3.10
2018-12-10T18:34:17.433Z,3.50
2018-12-10T18:36:44.946Z,4.00
2018-12-10T18:39:12.428Z,3.50
2018-12-10T18:41:39.888Z,3.97
2018-12-10T18:44:07.428Z,3.70
2018-12-10T18:46:34.939Z,3.37
2018-12-10T18:49:02.423Z,3.63
2018-12-10T18:51:29.899Z,3.80
2018-12-10T18:53:57.374Z,3.17
2018-12-10T18:56:24.879Z,3.60
2018-12-10T18:58:52.414Z,3.57
2018-12-10T19:01:19.896Z,3.03
2018-12-10T19:03:47.372Z,3.67
2018-12-10T19:06:14.840Z,3.13
2018-12-10T19:08:43.690Z,3.37
2018-12-10T19:11:11.289Z,3.63
2018-12-10T19:13:38.808Z,2.57
2018-12-10T19:16:06.635Z,2.33
2018-12-10T19:18:34.198Z,2.60
2018-12-10T19:21:01.751Z,3.60
2018-12-10T19:23:29.228Z,4.23
2018-12-10T19:25:56.735Z,3.77
2018-12-10T19:28:24.226Z,4.03
2018-12-10T19:30:51.697Z,3.37
2018-12-10T19:33:19.166Z,3.47
2018-12-10T19:35:46.642Z,3.00
2018-12-10T19:38:14.111Z,3.17
2018-12-10T19:40:41.603Z,3.07
2018-12-10T19:43:09.070Z,2.90
2018-12-10T19:45:36.558Z,3.60
2018-12-10T19:48:04.076Z,3.17
2018-12-10T19:50:31.547Z,3.87
2018-12-10T19:52:59.053Z,2.97
2018-12-10T19:55:26.634Z,3.10
2018-12-10T19:57:54.122Z,2.80
2018-12-10T20:00:21.622Z,3.10
2018-12-10T20:02:49.109Z,3.73
2018-12-10T20:05:16.581Z,2.80
2018-12-10T20:07:44.200Z,2.87
2018-12-10T20:10:11.835Z,2.70
2018-12-10T20:12:39.353Z,2.70
2018-12-10T20:15:07.842Z,2.37
2018-12-10T20:17:35.384Z,2.77
2018-12-10T20:20:03.541Z,2.77
2018-12-10T20:22:31.060Z,3.60
2018-12-10T20:24:58.664Z,2.60
2018-12-10T20:27:26.353Z,2.90
2018-12-10T20:29:54.248Z,2.77
2018-12-10T20:32:22.032Z,3.00
2018-12-10T20:34:49.519Z,2.60
2018-12-10T20:37:17.086Z,2.80
2018-12-10T20:39:44.663Z,2.23
2018-12-10T20:42:12.130Z,2.70
2018-12-10T20:44:39.719Z,2.97
2018-12-10T20:47:07.202Z,3.60
2018-12-10T20:49:34.723Z,3.60
2018-12-10T20:52:02.237Z,3.20
2018-12-10T20:54:29.892Z,2.90
2018-12-10T20:56:57.364Z,3.47
2018-12-10T20:59:24.838Z,3.17
2018-12-10T21:01:52.571Z,3.60
2018-12-10T21:04:20.138Z,3.57
2018-12-10T21:06:47.628Z,3.60
2018-12-10T21:09:15.155Z,3.67
2018-12-10T21:11:42.851Z,3.30
2018-12-10T21:14:10.424Z,4.20
2018-12-10T21:16:37.954Z,3.30
2018-12-10T21:19:05.442Z,3.50
2018-12-10T21:21:33.959Z,3.53
2018-12-10T21:24:01.582Z,5.37
2018-12-10T21:26:30.177Z,3.90
2018-12-10T21:28:57.673Z,4.03
2018-12-10T21:31:25.230Z,3.17
2018-12-10T21:33:52.719Z,3.30
2018-12-10T21:36:20.552Z,3.37
2018-12-10T21:38:48.061Z,3.07
2018-12-10T21:41:15.538Z,3.17
2018-12-10T21:43:43.003Z,3.30
2018-12-10T21:46:11.556Z,4.00
2018-12-10T21:48:39.024Z,2.97
2018-12-10T21:51:07.079Z,3.43
2018-12-10T21:53:35.594Z,2.93
2018-12-10T21:56:03.147Z,3.00
2018-12-10T21:58:30.656Z,3.00
2018-12-10T22:00:58.098Z,3.20
2018-12-10T22:03:25.700Z,2.70
2018-12-10T22:05:53.573Z,2.63
2018-12-10T22:08:21.161Z,3.07
2018-12-10T22:10:49.412Z,4.03
2018-12-10T22:13:17.885Z,3.07
2018-12-10T22:15:45.412Z,2.77
2018-12-10T22:18:13.017Z,3.70
2018-12-10T22:20:40.526Z,2.60
2018-12-10T22:23:07.995Z,2.77
2018-12-10T22:25:35.467Z,3.20
2018-12-10T22:28:03.034Z,2.97
2018-12-10T22:30:30.630Z,3.27
2018-12-10T22:32:58.139Z,2.83
2018-12-10T22:35:25.743Z,2.90
2018-12-10T22:37:53.290Z,3.20
2018-12-10T22:40:20.769Z,3.30
2018-12-10T22:42:48.354Z,3.40
2018-12-10T22:45:15.826Z,3.30
2018-12-10T22:47:43.352Z,3.03
2018-12-10T22:50:10.826Z,2.93
2018-12-10T22:52:38.386Z,3.70
2018-12-10T22:55:05.870Z,4.10
2018-12-10T22:57:33.344Z,3.43
2018-12-10T23:00:00.847Z,3.37
2018-12-10T23:02:28.766Z,3.40
2018-12-10T23:04:56.231Z,2.97
2018-12-10T23:07:23.730Z,3.00
2018-12-10T23:09:51.186Z,2.80
2018-12-10T23:12:18.647Z,3.77
2018-12-10T23:14:46.126Z,3.03
2018-12-10T23:17:13.591Z,3.20
2018-12-10T23:19:41.090Z,3.97
2018-12-10T23:22:08.573Z,4.13
2018-12-10T23:24:36.041Z,2.53
2018-12-10T23:27:03.578Z,2.80
2018-12-10T23:29:31.127Z,3.83
2018-12-10T23:31:58.583Z,3.37
2018-12-10T23:34:26.078Z,2.90
2018-12-10T23:36:53.552Z,3.10
2018-12-10T23:39:21.007Z,3.00
2018-12-10T23:47:15.074Z,2.60
2018-12-10T23:49:42.535Z,3.23
2018-12-10T23:52:10.002Z,4.37
2018-12-10T23:54:37.484Z,3.40
2018-12-10T23:57:05.010Z,3.27
2018-12-10T23:59:32.484Z,3.40
